createdAt,value
2016-11-07T00:00:07.972Z,94.70
2016-11-07T00:01:07.608Z,94.71
2016-11-07T00:02:08.254Z,94.91
2016-11-07T00:03:07.790Z,95.08
2016-11-07T00:04:08.434Z,95.10
2016-11-07T00:05:08.137Z,95.11
2016-11-07T00:06:07.705Z,95.04
2016-11-07T00:07:07.522Z,95.16
2016-11-07T00:08:08.095Z,95.06
2016-11-07T00:09:08.009Z,94.90
2016-11-07T00:10:07.542Z,94.94
2016-11-07T00:11:08.044Z,94.97
2016-11-07T00:12:07.802Z,94.91
2016-11-07T00:13:08.472Z,94.90
2016-11-07T00:14:08.036Z,95.24
2016-11-07T00:15:07.590Z,95.20
2016-11-07T00:16:08.100Z,95.05
2016-11-07T00:17:08.091Z,94.88
2016-11-07T00:18:07.918Z,95.14
2016-11-07T00:19:08.557Z,95.37
2016-11-07T00:20:08.491Z,95.40
2016-11-07T00:21:08.100Z,95.27
2016-11-07T00:22:07.769Z,95.25
2016-11-07T00:23:08.267Z,95.14
2016-11-07T00:24:07.847Z,95.15
2016-11-07T00:25:08.364Z,95.20
2016-11-07T00:26:08.002Z,95.35
2016-11-07T00:27:07.773Z,95.77
2016-11-07T00:28:08.414Z,95.72
2016-11-07T00:29:08.099Z,95.34
2016-11-07T00:30:07.671Z,95.08
2016-11-07T00:31:08.317Z,95.18
2016-11-07T00:32:07.849Z,95.47
2016-11-07T00:33:08.460Z,95.36
2016-11-07T00:34:08.252Z,95.60
2016-11-07T00:35:07.807Z,95.46
2016-11-07T00:36:08.599Z,95.48
2016-11-07T00:37:08.159Z,94.94
2016-11-07T00:38:07.758Z,95.07
2016-11-07T00:39:08.411Z,95.19
2016-11-07T00:40:08.282Z,95.58
2016-11-07T00:41:08.029Z,95.71
2016-11-07T00:42:07.778Z,95.59
2016-11-07T00:43:08.467Z,95.60
2016-11-07T00:44:08.150Z,95.11
2016-11-07T00:45:07.764Z,95.09
2016-11-07T00:46:08.410Z,95.29
2016-11-07T00:47:08.120Z,95.46
2016-11-07T00:48:07.720Z,95.60
2016-11-07T00:49:08.255Z,95.75
2016-11-07T00:50:08.000Z,95.67
2016-11-07T00:51:07.511Z,95.74
2016-11-07T00:52:08.172Z,95.62
2016-11-07T00:53:07.863Z,95.38
2016-11-07T00:54:08.695Z,95.62
2016-11-07T00:55:08.378Z,95.83
2016-11-07T00:56:08.041Z,95.62
2016-11-07T00:57:07.617Z,95.67
2016-11-07T00:58:08.215Z,95.75
2016-11-07T00:59:07.908Z,95.59
2016-11-07T01:00:08.547Z,95.85
2016-11-07T01:01:08.453Z,95.85
2016-11-07T01:02:08.239Z,95.76
2016-11-07T01:03:07.891Z,95.12
2016-11-07T01:04:07.550Z,95.56
2016-11-07T01:05:08.218Z,95.55
2016-11-07T01:06:08.029Z,95.84
2016-11-07T01:07:07.903Z,95.83
2016-11-07T01:08:14.100Z,95.55
2016-11-07T01:09:07.765Z,95.69
2016-11-07T01:10:08.339Z,95.47
2016-11-07T01:11:08.138Z,95.30
2016-11-07T01:12:08.206Z,95.30
2016-11-07T01:13:08.013Z,95.29
2016-11-07T01:14:07.503Z,95.39
2016-11-07T01:15:08.206Z,95.18
2016-11-07T01:16:08.103Z,95.51
2016-11-07T01:17:08.035Z,95.51
2016-11-07T01:18:07.693Z,95.47
2016-11-07T01:19:08.423Z,95.56
2016-11-07T01:20:08.090Z,95.48
2016-11-07T01:21:07.861Z,95.58
2016-11-07T01:22:08.553Z,95.44
2016-11-07T01:23:08.173Z,95.43
2016-11-07T01:24:07.913Z,95.51
2016-11-07T01:25:08.414Z,95.76
2016-11-07T01:26:08.017Z,95.64
2016-11-07T01:27:07.481Z,95.83
2016-11-07T01:28:08.246Z,95.90
2016-11-07T01:29:07.787Z,95.79
2016-11-07T01:30:08.567Z,95.72
2016-11-07T01:31:08.263Z,95.81
2016-11-07T01:32:08.438Z,95.86
2016-11-07T01:33:08.052Z,95.59
2016-11-07T01:34:07.605Z,95.54
2016-11-07T01:35:08.333Z,95.30
2016-11-07T01:36:08.532Z,95.31
2016-11-07T01:37:08.383Z,95.78
2016-11-07T01:38:08.180Z,95.37
2016-11-07T01:39:09.341Z,95.17
2016-11-07T01:40:07.937Z,95.02
2016-11-07T01:41:07.537Z,95.35
2016-11-07T01:42:08.130Z,95.57
2016-11-07T01:43:07.805Z,95.70
2016-11-07T01:44:08.634Z,95.73
2016-11-07T01:45:08.327Z,95.89
2016-11-07T01:46:08.198Z,95.52
2016-11-07T01:47:07.923Z,95.37
2016-11-07T01:48:08.631Z,95.32
2016-11-07T01:49:08.188Z,95.38
2016-11-07T01:50:07.678Z,95.42
2016-11-07T01:51:08.406Z,95.64
2016-11-07T01:52:08.418Z,95.31
2016-11-07T01:53:07.988Z,95.56
2016-11-07T01:54:07.553Z,95.23
2016-11-07T01:55:08.256Z,95.30
2016-11-07T01:56:08.187Z,95.58
2016-11-07T01:57:07.837Z,95.74
2016-11-07T01:58:08.404Z,95.50
2016-11-07T01:59:08.360Z,95.28
2016-11-07T02:00:07.948Z,95.30
2016-11-07T02:01:07.708Z,95.04
2016-11-07T02:02:08.169Z,94.96
2016-11-07T02:03:07.954Z,94.93
2016-11-07T02:04:07.599Z,94.76
2016-11-07T02:05:08.250Z,95.06
2016-11-07T02:06:08.474Z,95.14
2016-11-07T02:07:07.794Z,95.43
2016-11-07T02:08:08.114Z,95.67
2016-11-07T02:09:08.169Z,95.76
2016-11-07T02:10:08.193Z,95.90
2016-11-07T02:11:08.557Z,95.94
2016-11-07T02:12:08.191Z,96.07
2016-11-07T02:13:08.122Z,95.85
2016-11-07T02:14:07.904Z,95.33
2016-11-07T02:15:08.837Z,95.39
2016-11-07T02:16:08.549Z,95.32
2016-11-07T02:17:08.115Z,95.27
2016-11-07T02:18:07.809Z,95.25
2016-11-07T02:19:08.422Z,95.04
2016-11-07T02:20:08.053Z,94.97
2016-11-07T02:21:07.680Z,95.20
2016-11-07T02:22:08.317Z,95.22
2016-11-07T02:23:08.429Z,94.90
2016-11-07T02:24:08.144Z,94.98
2016-11-07T02:25:07.851Z,95.03
2016-11-07T02:26:08.505Z,95.28
2016-11-07T02:27:13.799Z,95.31
2016-11-07T02:28:14.093Z,95.48
2016-11-07T02:29:13.386Z,94.80
2016-11-07T02:30:07.875Z,94.88
2016-11-07T02:31:08.437Z,95.01
2016-11-07T02:32:07.858Z,95.33
2016-11-07T02:33:08.250Z,95.37
2016-11-07T02:34:08.163Z,95.68
2016-11-07T02:35:08.343Z,95.85
2016-11-07T02:36:08.174Z,96.08
2016-11-07T02:37:07.796Z,95.95
2016-11-07T02:38:13.903Z,95.73
2016-11-07T02:39:09.979Z,96.01
2016-11-07T02:40:07.608Z,95.83
2016-11-07T02:41:08.277Z,95.52
2016-11-07T02:42:07.785Z,95.60
2016-11-07T02:43:08.332Z,95.49
2016-11-07T02:44:08.225Z,95.80
2016-11-07T02:45:08.022Z,96.00
2016-11-07T02:46:07.735Z,95.75
2016-11-07T02:47:08.383Z,95.53
2016-11-07T02:48:08.720Z,95.47
2016-11-07T02:49:08.464Z,95.69
2016-11-07T02:50:07.994Z,95.69
2016-11-07T02:51:07.725Z,95.42
2016-11-07T02:52:08.362Z,95.37
2016-11-07T02:53:07.725Z,95.35
2016-11-07T02:54:08.503Z,95.28
2016-11-07T02:55:08.213Z,95.23
2016-11-07T02:56:07.845Z,95.86
2016-11-07T02:57:08.587Z,95.79
2016-11-07T02:58:08.318Z,95.68
2016-11-07T02:59:07.966Z,95.61
2016-11-07T03:00:07.797Z,95.86
2016-11-07T03:01:08.483Z,95.52
2016-11-07T03:02:07.986Z,95.51
2016-11-07T03:03:08.285Z,96.16
2016-11-07T03:04:08.082Z,96.22
2016-11-07T03:05:08.584Z,96.08
2016-11-07T03:06:08.249Z,96.11
2016-11-07T03:07:08.080Z,96.13
2016-11-07T03:08:07.801Z,96.15
2016-11-07T03:09:08.456Z,96.09
2016-11-07T03:10:14.704Z,96.08
2016-11-07T03:11:08.514Z,96.29
2016-11-07T03:12:08.145Z,96.37
2016-11-07T03:13:09.205Z,96.39
2016-11-07T03:14:07.800Z,96.41
2016-11-07T03:15:07.738Z,96.44
2016-11-07T03:16:08.558Z,96.46
2016-11-07T03:17:08.309Z,96.12
2016-11-07T03:18:07.834Z,96.02
2016-11-07T03:19:08.535Z,95.88
2016-11-07T03:20:08.196Z,95.79
2016-11-07T03:21:07.702Z,95.93
2016-11-07T03:22:14.052Z,96.04
2016-11-07T03:23:07.634Z,95.92
2016-11-07T03:24:08.136Z,95.96
2016-11-07T03:25:07.733Z,95.87
2016-11-07T03:26:08.393Z,95.94
2016-11-07T03:27:07.985Z,95.74
2016-11-07T03:28:07.612Z,95.75
2016-11-07T03:29:08.476Z,95.41
2016-11-07T03:30:08.277Z,95.48
2016-11-07T03:31:07.876Z,95.63
2016-11-07T03:32:08.484Z,96.00
2016-11-07T03:33:08.169Z,96.23
2016-11-07T03:34:07.794Z,96.07
2016-11-07T03:35:08.817Z,96.26
2016-11-07T03:36:08.481Z,95.90
2016-11-07T03:37:08.065Z,95.83
2016-11-07T03:38:07.579Z,95.51
2016-11-07T03:39:08.181Z,95.69
2016-11-07T03:40:07.724Z,95.79
2016-11-07T03:41:08.304Z,95.79
2016-11-07T03:42:07.974Z,95.80
2016-11-07T03:43:07.535Z,95.68
2016-11-07T03:44:08.209Z,95.58
2016-11-07T03:45:07.805Z,95.22
2016-11-07T03:46:08.488Z,95.25
2016-11-07T03:47:08.081Z,95.21
2016-11-07T03:48:07.599Z,95.40
2016-11-07T03:49:08.179Z,95.06
2016-11-07T03:50:07.715Z,94.78
2016-11-07T03:51:08.355Z,95.06
2016-11-07T03:52:07.988Z,95.39
2016-11-07T03:53:07.568Z,95.46
2016-11-07T03:54:08.197Z,95.50
2016-11-07T03:55:07.957Z,95.59
2016-11-07T03:56:07.620Z,95.62
2016-11-07T03:57:08.274Z,95.11
2016-11-07T03:58:07.836Z,95.26
2016-11-07T03:59:08.355Z,95.31
2016-11-07T04:00:07.907Z,95.10
2016-11-07T04:01:08.579Z,95.52
2016-11-07T04:02:08.273Z,95.57
2016-11-07T04:03:07.898Z,95.46
2016-11-07T04:04:08.511Z,95.27
2016-11-07T04:05:08.159Z,95.44
2016-11-07T04:06:07.732Z,95.69
2016-11-07T04:07:08.306Z,95.81
2016-11-07T04:08:08.921Z,95.56
2016-11-07T04:09:07.586Z,95.53
2016-11-07T04:10:09.105Z,95.59
2016-11-07T04:11:07.661Z,95.92
2016-11-07T04:12:08.249Z,95.70
2016-11-07T04:13:08.090Z,95.60
2016-11-07T04:14:07.753Z,95.61
2016-11-07T04:15:08.319Z,95.54
2016-11-07T04:16:07.957Z,95.54
2016-11-07T04:17:07.647Z,95.27
2016-11-07T04:18:08.323Z,95.30
2016-11-07T04:19:07.799Z,95.19
2016-11-07T04:20:08.705Z,95.21
2016-11-07T04:21:08.400Z,95.25
2016-11-07T04:22:07.931Z,95.59
2016-11-07T04:23:07.451Z,95.35
2016-11-07T04:24:08.252Z,95.15
2016-11-07T04:25:07.769Z,95.17
2016-11-07T04:26:08.447Z,94.39
2016-11-07T04:27:08.241Z,94.62
2016-11-07T04:28:07.794Z,94.38
2016-11-07T04:29:08.378Z,94.51
2016-11-07T04:30:07.884Z,94.48
2016-11-07T04:31:08.519Z,94.55
2016-11-07T04:32:08.217Z,94.63
2016-11-07T04:33:07.883Z,94.73
2016-11-07T04:34:08.446Z,94.63
2016-11-07T04:35:08.079Z,94.93
2016-11-07T04:36:07.558Z,95.07
2016-11-07T04:37:08.174Z,95.15
2016-11-07T04:38:07.705Z,95.10
2016-11-07T04:39:08.294Z,95.60
2016-11-07T04:40:07.922Z,95.82
2016-11-07T04:41:08.520Z,95.92
2016-11-07T04:42:08.173Z,95.86
2016-11-07T04:43:07.695Z,95.86
2016-11-07T04:44:08.296Z,95.79
2016-11-07T04:45:07.931Z,95.72
2016-11-07T04:46:07.543Z,95.38
2016-11-07T04:47:08.218Z,95.38
2016-11-07T04:48:07.757Z,95.26
2016-11-07T04:49:08.495Z,95.33
2016-11-07T04:50:08.247Z,95.40
2016-11-07T04:51:07.926Z,95.10
2016-11-07T04:52:08.678Z,95.01
2016-11-07T04:53:08.428Z,94.85
2016-11-07T04:54:08.135Z,94.62
2016-11-07T04:55:07.873Z,94.85
2016-11-07T04:56:08.578Z,94.84
2016-11-07T04:57:08.307Z,94.66
2016-11-07T04:58:07.813Z,94.91
2016-11-07T04:59:07.882Z,94.93
2016-11-07T05:00:08.451Z,94.96
2016-11-07T05:01:07.980Z,95.02
2016-11-07T05:02:07.533Z,95.12
2016-11-07T05:03:08.153Z,95.15
2016-11-07T05:04:08.021Z,94.81
2016-11-07T05:05:07.908Z,95.20
2016-11-07T05:06:08.559Z,94.78
2016-11-07T05:07:08.300Z,94.88
2016-11-07T05:08:13.618Z,95.05
2016-11-07T05:09:08.294Z,95.00
2016-11-07T05:10:07.796Z,95.20
2016-11-07T05:11:08.411Z,95.02
2016-11-07T05:12:07.973Z,94.92
2016-11-07T05:13:07.527Z,94.98
2016-11-07T05:14:08.157Z,95.17
2016-11-07T05:15:07.780Z,94.89
2016-11-07T05:16:08.348Z,94.75
2016-11-07T05:17:08.058Z,95.03
2016-11-07T05:18:07.627Z,95.17
2016-11-07T05:19:13.845Z,94.95
2016-11-07T05:20:08.450Z,95.12
2016-11-07T05:21:07.906Z,95.29
2016-11-07T05:22:07.756Z,95.50
2016-11-07T05:23:08.540Z,95.60
2016-11-07T05:24:08.182Z,95.93
2016-11-07T05:25:10.690Z,96.21
2016-11-07T05:26:08.353Z,96.27
2016-11-07T05:27:07.960Z,96.32
2016-11-07T05:28:07.577Z,95.94
2016-11-07T05:29:08.242Z,95.80
2016-11-07T05:30:07.815Z,95.74
2016-11-07T05:31:08.329Z,95.79
2016-11-07T05:32:08.330Z,96.17
2016-11-07T05:33:08.120Z,96.19
2016-11-07T05:34:07.988Z,96.12
2016-11-07T05:35:07.525Z,96.37
2016-11-07T05:36:08.175Z,96.29
2016-11-07T05:37:07.782Z,96.11
2016-11-07T05:38:08.410Z,95.79
2016-11-07T05:39:08.260Z,95.87
2016-11-07T05:40:07.897Z,96.01
2016-11-07T05:41:13.998Z,96.25
2016-11-07T05:42:07.612Z,96.31
2016-11-07T05:43:08.095Z,95.83
2016-11-07T05:44:07.809Z,95.44
2016-11-07T05:45:08.410Z,95.01
2016-11-07T05:46:08.015Z,95.14
2016-11-07T05:47:09.955Z,95.46
2016-11-07T05:48:08.329Z,95.51
2016-11-07T05:49:07.930Z,95.37
2016-11-07T05:50:07.636Z,95.12
2016-11-07T05:51:08.267Z,95.18
2016-11-07T05:52:07.806Z,95.28
2016-11-07T05:53:08.501Z,95.31
2016-11-07T05:54:08.025Z,95.31
2016-11-07T05:55:07.612Z,94.96
2016-11-07T05:56:08.202Z,95.21
2016-11-07T05:57:07.848Z,95.74
2016-11-07T05:58:08.638Z,96.18
2016-11-07T05:59:08.316Z,96.26
2016-11-07T06:00:07.884Z,96.13
2016-11-07T06:01:08.704Z,96.04
2016-11-07T06:02:08.387Z,95.70
2016-11-07T06:03:08.043Z,96.14
2016-11-07T06:04:07.588Z,96.30
2016-11-07T06:05:08.227Z,97.13
2016-11-07T06:06:07.843Z,97.51
2016-11-07T06:07:08.589Z,97.13
2016-11-07T06:08:08.193Z,96.32
2016-11-07T06:09:08.170Z,96.96
2016-11-07T06:10:07.706Z,96.47
2016-11-07T06:11:07.610Z,96.45
2016-11-07T06:12:08.251Z,97.47
2016-11-07T06:13:07.916Z,97.50
2016-11-07T06:14:07.550Z,97.30
2016-11-07T06:15:08.221Z,97.55
2016-11-07T06:16:08.021Z,97.82
2016-11-07T06:17:07.810Z,97.16
2016-11-07T06:18:07.517Z,97.32
2016-11-07T06:19:08.131Z,98.12
2016-11-07T06:20:07.884Z,97.10
2016-11-07T06:21:07.648Z,96.15
2016-11-07T06:22:08.740Z,95.76
2016-11-07T06:23:09.200Z,95.44
2016-11-07T06:24:07.668Z,95.45
2016-11-07T06:25:08.330Z,95.15
2016-11-07T06:26:08.021Z,95.42
2016-11-07T06:27:07.782Z,95.54
2016-11-07T06:28:09.449Z,95.71
2016-11-07T06:29:07.997Z,95.43
2016-11-07T06:30:07.659Z,94.78
2016-11-07T06:31:08.370Z,94.35
2016-11-07T06:32:08.069Z,94.80
2016-11-07T06:33:07.691Z,94.56
2016-11-07T06:34:08.386Z,94.36
2016-11-07T06:35:08.034Z,94.51
2016-11-07T06:36:07.717Z,94.87
2016-11-07T06:37:08.388Z,94.26
2016-11-07T06:38:08.038Z,93.91
2016-11-07T06:39:08.250Z,93.99
2016-11-07T06:40:07.417Z,94.11
2016-11-07T06:41:08.111Z,94.16
2016-11-07T06:42:13.329Z,94.44
2016-11-07T06:43:07.450Z,94.40
2016-11-07T06:44:08.164Z,94.37
2016-11-07T06:45:07.770Z,94.51
2016-11-07T06:46:07.559Z,94.00
2016-11-07T06:47:08.220Z,93.57
2016-11-07T06:48:07.864Z,93.24
2016-11-07T06:49:07.526Z,92.95
2016-11-07T06:50:08.160Z,92.60
2016-11-07T06:51:07.925Z,92.21
2016-11-07T06:52:07.599Z,91.43
2016-11-07T06:53:08.239Z,91.42
2016-11-07T06:54:07.968Z,91.44
2016-11-07T06:55:07.571Z,90.93
2016-11-07T06:56:08.238Z,90.36
2016-11-07T06:57:07.922Z,90.29
2016-11-07T06:58:13.287Z,89.48
2016-11-07T06:59:08.362Z,89.76
2016-11-07T07:00:08.014Z,90.54
2016-11-07T07:01:07.672Z,89.83
2016-11-07T07:02:08.399Z,89.76
2016-11-07T07:03:07.978Z,89.14
2016-11-07T07:04:07.682Z,89.26
2016-11-07T07:05:08.351Z,90.00
2016-11-07T07:06:08.032Z,91.63
2016-11-07T07:07:07.748Z,91.21
2016-11-07T07:08:08.364Z,91.63
2016-11-07T07:09:08.117Z,91.77
2016-11-07T07:10:07.778Z,91.89
2016-11-07T07:11:07.444Z,92.24
2016-11-07T07:12:08.113Z,91.17
2016-11-07T07:13:07.875Z,90.40
2016-11-07T07:14:07.552Z,89.50
2016-11-07T07:15:08.191Z,88.57
2016-11-07T07:16:07.939Z,88.45
2016-11-07T07:17:07.711Z,85.92
2016-11-07T07:18:07.420Z,85.17
2016-11-07T07:19:08.091Z,85.73
2016-11-07T07:20:07.761Z,86.89
2016-11-07T07:21:07.407Z,87.80
2016-11-07T07:22:09.229Z,87.79
2016-11-07T07:23:07.870Z,88.03
2016-11-07T07:24:07.567Z,88.52
2016-11-07T07:25:08.163Z,89.04
2016-11-07T07:26:07.770Z,87.95
2016-11-07T07:27:07.475Z,86.79
2016-11-07T07:28:08.114Z,87.75
2016-11-07T07:29:07.814Z,87.80
2016-11-07T07:30:07.534Z,87.95
2016-11-07T07:31:08.231Z,87.79
2016-11-07T07:32:07.957Z,87.47
2016-11-07T07:33:07.659Z,87.60
2016-11-07T07:34:08.292Z,87.29
2016-11-07T07:35:13.547Z,87.09
2016-11-07T07:36:07.590Z,87.10
2016-11-07T07:37:08.239Z,87.94
2016-11-07T07:38:07.908Z,88.59
2016-11-07T07:39:07.644Z,88.43
2016-11-07T07:40:08.430Z,87.92
2016-11-07T07:41:08.012Z,87.58
2016-11-07T07:42:14.188Z,87.63
2016-11-07T07:43:08.343Z,87.17
2016-11-07T07:44:08.100Z,88.35
2016-11-07T07:45:07.658Z,88.40
2016-11-07T07:46:08.308Z,88.19
2016-11-07T07:47:08.032Z,88.13
2016-11-07T07:48:07.771Z,88.73
2016-11-07T07:49:13.910Z,88.25
2016-11-07T07:50:08.001Z,87.53
2016-11-07T07:51:07.667Z,87.30
2016-11-07T07:52:08.343Z,87.02
2016-11-07T07:53:08.066Z,87.35
2016-11-07T07:54:07.771Z,87.49
2016-11-07T07:55:08.414Z,87.72
2016-11-07T07:56:08.053Z,88.21
2016-11-07T07:57:07.739Z,88.36
2016-11-07T07:58:07.442Z,87.87
2016-11-07T07:59:08.150Z,87.99
2016-11-07T08:00:07.842Z,88.00
2016-11-07T08:01:07.454Z,88.54
2016-11-07T08:02:08.193Z,88.16
2016-11-07T08:03:07.820Z,87.78
2016-11-07T08:04:07.520Z,87.44
2016-11-07T08:05:07.665Z,87.40
2016-11-07T08:06:08.385Z,86.73
2016-11-07T08:07:08.064Z,86.96
2016-11-07T08:08:07.723Z,86.97
2016-11-07T08:09:07.460Z,86.92
2016-11-07T08:10:08.127Z,86.79
2016-11-07T08:11:14.069Z,87.83
2016-11-07T08:12:07.420Z,87.92
2016-11-07T08:13:08.113Z,87.73
2016-11-07T08:14:07.869Z,87.63
2016-11-07T08:15:07.469Z,87.34
2016-11-07T08:16:08.179Z,87.11
2016-11-07T08:17:08.012Z,87.55
2016-11-07T08:18:07.711Z,88.12
2016-11-07T08:19:07.555Z,88.07
2016-11-07T08:20:07.809Z,87.89
2016-11-07T08:21:07.512Z,87.53
2016-11-07T08:22:08.152Z,87.32
2016-11-07T08:23:07.862Z,86.51
2016-11-07T08:24:07.609Z,86.93
2016-11-07T08:25:08.279Z,88.53
2016-11-07T08:26:08.021Z,88.22
2016-11-07T08:27:07.612Z,88.14
2016-11-07T08:28:08.302Z,87.93
2016-11-07T08:29:08.040Z,88.37
2016-11-07T08:30:07.671Z,87.69
2016-11-07T08:31:08.357Z,88.32
2016-11-07T08:32:08.085Z,87.84
2016-11-07T08:33:07.761Z,87.78
2016-11-07T08:34:08.643Z,87.51
2016-11-07T08:35:07.965Z,87.94
2016-11-07T08:36:07.572Z,87.78
2016-11-07T08:37:08.288Z,88.68
2016-11-07T08:38:07.938Z,87.85
2016-11-07T08:39:07.634Z,87.98
2016-11-07T08:40:08.320Z,88.19
2016-11-07T08:41:08.014Z,88.95
2016-11-07T08:42:07.747Z,89.05
2016-11-07T08:43:08.381Z,88.73
2016-11-07T08:44:07.947Z,88.14
2016-11-07T08:45:07.719Z,88.68
2016-11-07T08:46:08.358Z,88.66
2016-11-07T08:47:08.092Z,88.19
2016-11-07T08:48:07.848Z,87.31
2016-11-07T08:49:07.600Z,87.90
2016-11-07T08:50:08.123Z,87.28
2016-11-07T08:51:07.839Z,87.50
2016-11-07T08:52:07.527Z,87.76
2016-11-07T08:53:08.241Z,87.97
2016-11-07T08:54:07.961Z,87.98
2016-11-07T08:55:07.647Z,88.48
2016-11-07T08:56:08.328Z,88.69
2016-11-07T08:57:07.979Z,88.03
2016-11-07T08:58:07.636Z,88.04
2016-11-07T08:59:08.347Z,87.55
2016-11-07T09:00:08.078Z,86.85
2016-11-07T09:01:07.694Z,87.16
2016-11-07T09:02:08.399Z,87.09
2016-11-07T09:03:08.079Z,86.51
2016-11-07T09:04:07.840Z,85.59
2016-11-07T09:05:08.186Z,85.73
2016-11-07T09:06:07.791Z,86.30
2016-11-07T09:07:07.480Z,86.10
2016-11-07T09:08:08.174Z,85.62
2016-11-07T09:09:07.811Z,85.37
2016-11-07T09:10:07.598Z,84.99
2016-11-07T09:11:08.202Z,85.48
2016-11-07T09:12:07.938Z,86.12
2016-11-07T09:13:07.589Z,86.19
2016-11-07T09:14:08.314Z,86.58
2016-11-07T09:15:08.012Z,86.17
2016-11-07T09:16:07.617Z,86.72
2016-11-07T09:17:08.369Z,88.16
2016-11-07T09:18:08.092Z,87.44
2016-11-07T09:19:07.742Z,87.37
2016-11-07T09:20:08.025Z,87.12
2016-11-07T09:21:07.712Z,86.49
2016-11-07T09:22:08.299Z,87.31
2016-11-07T09:23:07.935Z,87.34
2016-11-07T09:24:07.633Z,87.11
2016-11-07T09:25:08.350Z,86.37
2016-11-07T09:26:13.780Z,86.91
2016-11-07T09:27:07.701Z,86.15
2016-11-07T09:28:08.331Z,86.30
2016-11-07T09:29:08.083Z,85.33
2016-11-07T09:30:07.688Z,86.17
2016-11-07T09:31:08.332Z,86.46
2016-11-07T09:32:08.039Z,85.03
2016-11-07T09:33:07.651Z,83.99
2016-11-07T09:34:08.299Z,84.42
2016-11-07T09:35:08.035Z,84.97
2016-11-07T09:36:07.792Z,83.60
2016-11-07T09:37:08.374Z,84.06
2016-11-07T09:38:08.118Z,84.29
2016-11-07T09:39:07.803Z,83.37
2016-11-07T09:40:07.521Z,83.37
2016-11-07T09:41:08.167Z,84.02
2016-11-07T09:42:07.832Z,84.80
2016-11-07T09:43:07.490Z,85.06
2016-11-07T09:44:08.192Z,85.32
2016-11-07T09:45:07.891Z,84.84
2016-11-07T09:46:07.485Z,85.04
2016-11-07T09:47:08.227Z,85.26
2016-11-07T09:48:07.972Z,85.64
2016-11-07T09:49:07.971Z,85.68
2016-11-07T09:50:07.661Z,85.82
2016-11-07T09:51:08.287Z,83.64
2016-11-07T09:52:13.440Z,81.83
2016-11-07T09:53:07.664Z,81.21
2016-11-07T09:54:08.303Z,81.72
2016-11-07T09:55:08.017Z,82.70
2016-11-07T09:56:07.905Z,83.34
2016-11-07T09:57:07.390Z,84.51
2016-11-07T09:58:08.410Z,84.66
2016-11-07T09:59:07.752Z,83.00
2016-11-07T10:00:07.471Z,82.45
2016-11-07T10:01:08.081Z,83.23
2016-11-07T10:02:07.822Z,83.05
2016-11-07T10:03:07.423Z,83.61
2016-11-07T10:04:08.163Z,83.55
2016-11-07T10:05:08.138Z,84.46
2016-11-07T10:06:07.841Z,84.66
2016-11-07T10:07:07.440Z,83.58
2016-11-07T10:08:08.123Z,83.50
2016-11-07T10:09:07.823Z,83.46
2016-11-07T10:10:07.527Z,82.24
2016-11-07T10:11:08.181Z,84.40
2016-11-07T10:12:07.803Z,83.34
2016-11-07T10:13:07.492Z,84.94
2016-11-07T10:14:08.173Z,86.79
2016-11-07T10:15:07.899Z,86.63
2016-11-07T10:16:07.540Z,85.21
2016-11-07T10:17:08.321Z,82.59
2016-11-07T10:18:08.044Z,81.93
2016-11-07T10:19:07.956Z,82.57
2016-11-07T10:20:07.580Z,81.78
2016-11-07T10:21:08.225Z,81.63
2016-11-07T10:22:07.882Z,81.57
2016-11-07T10:23:07.619Z,83.06
2016-11-07T10:24:08.254Z,84.48
2016-11-07T10:25:08.000Z,85.04
2016-11-07T10:26:07.617Z,82.72
2016-11-07T10:27:08.301Z,81.49
2016-11-07T10:28:07.947Z,82.66
2016-11-07T10:29:07.676Z,83.43
2016-11-07T10:30:08.314Z,84.59
2016-11-07T10:31:07.904Z,84.57
2016-11-07T10:32:07.616Z,82.53
2016-11-07T10:33:08.293Z,82.43
2016-11-07T10:34:08.227Z,83.71
2016-11-07T10:35:07.880Z,84.11
2016-11-07T10:36:07.545Z,82.94
2016-11-07T10:37:08.329Z,81.88
2016-11-07T10:38:07.849Z,80.08
2016-11-07T10:39:07.653Z,80.59
2016-11-07T10:40:08.318Z,81.69
2016-11-07T10:41:08.527Z,83.06
2016-11-07T10:42:07.716Z,82.43
2016-11-07T10:43:08.347Z,83.23
2016-11-07T10:44:08.068Z,83.79
2016-11-07T10:45:07.801Z,83.81
2016-11-07T10:46:07.458Z,83.03
2016-11-07T10:47:08.217Z,80.55
2016-11-07T10:48:07.859Z,81.55
2016-11-07T10:49:07.530Z,79.15
2016-11-07T10:50:08.297Z,79.19
2016-11-07T10:51:07.959Z,80.08
2016-11-07T10:52:07.644Z,82.07
2016-11-07T10:53:08.319Z,82.23
2016-11-07T10:54:07.989Z,82.33
2016-11-07T10:55:07.764Z,81.82
2016-11-07T10:56:08.386Z,80.23
2016-11-07T10:57:08.013Z,78.85
2016-11-07T10:58:07.728Z,79.62
2016-11-07T10:59:07.451Z,79.10
2016-11-07T11:00:08.152Z,79.04
2016-11-07T11:01:07.766Z,79.85
2016-11-07T11:02:07.472Z,80.88
2016-11-07T11:03:08.129Z,81.02
2016-11-07T11:04:08.002Z,79.31
2016-11-07T11:05:07.626Z,78.82
2016-11-07T11:06:08.248Z,78.08
2016-11-07T11:07:07.948Z,77.53
2016-11-07T11:08:07.596Z,76.74
2016-11-07T11:09:08.308Z,76.46
2016-11-07T11:10:07.998Z,76.09
2016-11-07T11:11:07.654Z,76.81
2016-11-07T11:12:08.349Z,79.38
2016-11-07T11:13:08.063Z,80.66
2016-11-07T11:14:07.747Z,80.04
2016-11-07T11:15:07.479Z,80.02
2016-11-07T11:16:08.144Z,78.94
2016-11-07T11:17:07.976Z,79.94
2016-11-07T11:18:07.675Z,80.59
2016-11-07T11:19:08.678Z,82.00
2016-11-07T11:20:08.376Z,82.15
2016-11-07T11:21:08.025Z,81.20
2016-11-07T11:22:07.731Z,79.89
2016-11-07T11:23:07.466Z,80.93
2016-11-07T11:24:08.118Z,82.08
2016-11-07T11:25:07.880Z,81.71
2016-11-07T11:26:07.545Z,81.92
2016-11-07T11:27:08.254Z,82.05
2016-11-07T11:28:07.889Z,82.41
2016-11-07T11:29:07.557Z,82.11
2016-11-07T11:30:08.294Z,82.83
2016-11-07T11:31:07.990Z,81.73
2016-11-07T11:32:07.772Z,82.47
2016-11-07T11:33:08.443Z,82.21
2016-11-07T11:34:08.310Z,81.27
2016-11-07T11:35:07.875Z,80.58
2016-11-07T11:36:07.573Z,80.99
2016-11-07T11:37:08.151Z,81.19
2016-11-07T11:38:07.922Z,80.05
2016-11-07T11:39:07.635Z,76.83
2016-11-07T11:40:08.251Z,78.15
2016-11-07T11:41:07.928Z,80.24
2016-11-07T11:42:07.574Z,77.73
2016-11-07T11:43:08.263Z,78.61
2016-11-07T11:44:07.862Z,77.45
2016-11-07T11:45:07.604Z,76.86
2016-11-07T11:46:08.210Z,73.92
2016-11-07T11:47:07.922Z,74.46
2016-11-07T11:48:07.602Z,72.44
2016-11-07T11:49:08.531Z,71.97
2016-11-07T11:50:08.079Z,74.56
2016-11-07T11:51:07.683Z,77.55
2016-11-07T11:52:07.398Z,78.33
2016-11-07T11:53:08.049Z,78.21
2016-11-07T11:54:07.778Z,75.92
2016-11-07T11:55:07.493Z,77.32
2016-11-07T11:56:08.111Z,78.06
2016-11-07T11:57:07.795Z,78.72
2016-11-07T11:58:07.506Z,78.88
2016-11-07T11:59:08.259Z,78.90
2016-11-07T12:00:07.981Z,79.36
2016-11-07T12:01:08.661Z,77.97
2016-11-07T12:02:08.367Z,76.37
2016-11-07T12:03:07.817Z,76.65
2016-11-07T12:04:07.839Z,75.61
2016-11-07T12:05:07.584Z,74.64
2016-11-07T12:06:08.191Z,75.22
2016-11-07T12:07:07.912Z,75.80
2016-11-07T12:08:07.571Z,74.99
2016-11-07T12:09:08.283Z,75.16
2016-11-07T12:10:07.968Z,75.25
2016-11-07T12:11:07.581Z,76.95
2016-11-07T12:12:08.265Z,77.16
2016-11-07T12:13:07.955Z,73.77
2016-11-07T12:14:07.621Z,74.11
2016-11-07T12:15:08.306Z,72.41
2016-11-07T12:16:07.930Z,71.29
2016-11-07T12:17:07.748Z,72.05
2016-11-07T12:18:07.426Z,71.45
2016-11-07T12:19:08.131Z,71.26
2016-11-07T12:20:07.967Z,70.24
2016-11-07T12:21:07.598Z,71.74
2016-11-07T12:22:08.277Z,71.22
2016-11-07T12:23:07.961Z,74.21
2016-11-07T12:24:07.626Z,73.41
2016-11-07T12:25:08.311Z,70.91
2016-11-07T12:26:08.055Z,70.92
2016-11-07T12:27:07.678Z,72.63
2016-11-07T12:28:08.347Z,73.25
2016-11-07T12:29:07.991Z,74.78
2016-11-07T12:30:07.704Z,71.14
2016-11-07T12:31:08.368Z,72.28
2016-11-07T12:32:08.057Z,73.04
2016-11-07T12:33:07.680Z,72.93
2016-11-07T12:34:08.345Z,72.88
2016-11-07T12:35:08.176Z,71.84
2016-11-07T12:36:07.790Z,71.27
2016-11-07T12:37:07.496Z,73.21
2016-11-07T12:38:08.123Z,72.17
2016-11-07T12:39:07.781Z,71.92
2016-11-07T12:40:07.452Z,72.27
2016-11-07T12:41:08.100Z,72.77
2016-11-07T12:42:07.755Z,74.52
2016-11-07T12:43:07.441Z,76.07
2016-11-07T12:44:08.108Z,76.40
2016-11-07T12:45:07.874Z,76.50
2016-11-07T12:46:07.472Z,74.82
2016-11-07T12:47:08.217Z,74.25
2016-11-07T12:48:07.841Z,74.58
2016-11-07T12:49:07.557Z,75.49
2016-11-07T12:50:08.336Z,76.46
2016-11-07T12:51:07.951Z,77.01
2016-11-07T12:52:13.500Z,77.92